createdAt,value
2022-10-03T00:02:59.103Z,10.81
2022-10-03T00:05:46.363Z,10.84
2022-10-03T00:08:33.628Z,10.84
2022-10-03T00:11:18.046Z,10.85
2022-10-03T00:13:58.919Z,10.86
2022-10-03T00:16:45.355Z,10.88
2022-10-03T00:19:33.082Z,10.90
2022-10-03T00:22:16.800Z,10.89
2022-10-03T00:25:04.338Z,10.88
2022-10-03T00:27:43.117Z,10.89
2022-10-03T00:30:20.544Z,10.91
2022-10-03T00:33:16.243Z,10.92
2022-10-03T00:36:02.809Z,10.92
2022-10-03T00:38:56.591Z,10.92
2022-10-03T00:41:49.320Z,10.95
2022-10-03T00:44:54.806Z,10.95
2022-10-03T00:47:47.660Z,10.96
2022-10-03T00:50:51.881Z,10.94
2022-10-03T00:53:44.707Z,10.96
2022-10-03T00:56:29.774Z,11.01
2022-10-03T00:59:19.389Z,11.02
2022-10-03T01:01:52.291Z,11.03
2022-10-03T01:04:56.555Z,11.04
2022-10-03T01:07:46.875Z,11.06
2022-10-03T01:10:24.206Z,11.06
2022-10-03T01:13:18.089Z,11.04
2022-10-03T01:15:59.513Z,11.03
2022-10-03T01:18:43.245Z,11.03
2022-10-03T01:21:26.465Z,11.07
2022-10-03T01:24:18.995Z,11.07
2022-10-03T01:26:59.203Z,11.08
2022-10-03T01:30:03.098Z,11.08
2022-10-03T01:32:42.008Z,11.10
2022-10-03T01:35:24.561Z,11.11
2022-10-03T01:38:05.197Z,11.10
2022-10-03T01:40:43.225Z,11.08
2022-10-03T01:43:20.284Z,11.06
2022-10-03T01:46:04.939Z,11.09
2022-10-03T01:48:47.649Z,11.09
2022-10-03T01:51:25.938Z,11.07
2022-10-03T01:54:17.961Z,11.08
2022-10-03T01:56:59.075Z,11.10
2022-10-03T01:59:39.880Z,11.11
2022-10-03T02:02:17.559Z,11.15
2022-10-03T02:04:57.410Z,11.15
2022-10-03T02:07:44.212Z,11.13
2022-10-03T02:10:26.354Z,11.09
2022-10-03T02:13:08.711Z,11.10
2022-10-03T02:15:56.678Z,11.14
2022-10-03T02:18:40.372Z,11.16
2022-10-03T02:21:18.805Z,11.17
2022-10-03T02:24:02.779Z,11.18
2022-10-03T02:27:11.818Z,11.20
2022-10-03T02:30:11.641Z,11.22
2022-10-03T02:33:17.223Z,11.24
2022-10-03T02:36:06.162Z,11.28
2022-10-03T02:39:03.144Z,11.25
2022-10-03T02:42:06.546Z,11.23
2022-10-03T02:45:14.861Z,11.26
2022-10-03T02:48:32.672Z,11.31
2022-10-03T02:51:50.053Z,11.31
2022-10-03T02:54:52.607Z,11.32
2022-10-03T02:57:50.120Z,11.35
2022-10-03T03:00:23.360Z,11.38
2022-10-03T03:03:32.010Z,11.40
2022-10-03T03:06:32.546Z,11.39
2022-10-03T03:09:48.409Z,11.36
2022-10-03T03:12:56.811Z,11.34
2022-10-03T03:16:02.255Z,11.34
2022-10-03T03:18:36.104Z,11.39
2022-10-03T03:21:25.708Z,11.39
2022-10-03T03:24:16.200Z,11.42
2022-10-03T03:27:05.327Z,11.44
2022-10-03T03:29:49.727Z,11.45
2022-10-03T03:32:33.772Z,11.47
2022-10-03T03:35:19.836Z,11.50
2022-10-03T03:38:04.761Z,11.54
2022-10-03T03:40:46.383Z,11.55
2022-10-03T03:43:38.227Z,11.54
2022-10-03T03:46:21.177Z,11.53
2022-10-03T03:49:06.735Z,11.55
2022-10-03T03:51:53.004Z,11.54
2022-10-03T03:54:47.096Z,11.56
2022-10-03T03:57:41.762Z,11.57
2022-10-03T04:00:19.039Z,11.59
2022-10-03T04:03:11.026Z,11.60
2022-10-03T04:06:00.680Z,11.63
2022-10-03T04:08:49.336Z,11.65
2022-10-03T04:11:33.190Z,11.65
2022-10-03T04:14:24.765Z,11.63
2022-10-03T04:17:35.527Z,11.62
2022-10-03T04:20:23.724Z,11.64
2022-10-03T04:23:14.747Z,11.63
2022-10-03T04:26:13.052Z,11.62
2022-10-03T04:29:26.417Z,11.61
2022-10-03T04:32:09.357Z,11.62
2022-10-03T04:34:58.325Z,11.64
2022-10-03T04:37:41.854Z,11.65
2022-10-03T04:40:26.956Z,11.67
2022-10-03T04:43:11.561Z,11.66
2022-10-03T04:45:56.301Z,11.67
2022-10-03T04:48:39.031Z,11.67
2022-10-03T04:51:22.160Z,11.68
2022-10-03T04:54:02.420Z,11.69
2022-10-03T04:56:45.655Z,11.69
2022-10-03T04:59:36.043Z,11.66
2022-10-03T05:02:20.001Z,11.64
2022-10-03T05:05:11.220Z,11.62
2022-10-03T05:07:51.709Z,11.65
2022-10-03T05:10:35.988Z,11.65
2022-10-03T05:13:16.562Z,11.66
2022-10-03T05:15:57.978Z,11.69
2022-10-03T05:18:35.696Z,11.71
2022-10-03T05:21:17.054Z,11.75
2022-10-03T05:24:03.374Z,11.77
2022-10-03T05:26:46.418Z,11.80
2022-10-03T05:29:32.144Z,11.83
2022-10-03T05:32:18.145Z,11.84
2022-10-03T05:35:13.743Z,11.83
2022-10-03T05:37:59.142Z,11.82
2022-10-03T05:40:34.373Z,11.79
2022-10-03T05:43:19.807Z,11.79
2022-10-03T05:46:02.259Z,11.82
2022-10-03T05:48:48.421Z,11.83
2022-10-03T05:52:00.283Z,11.82
2022-10-03T05:54:59.654Z,11.84
2022-10-03T05:58:10.046Z,11.86
2022-10-03T06:01:04.424Z,11.91
2022-10-03T06:04:05.089Z,11.93
2022-10-03T06:06:54.286Z,11.97
2022-10-03T06:10:05.479Z,11.99
2022-10-03T06:12:45.846Z,11.99
2022-10-03T06:15:38.150Z,11.97
2022-10-03T06:18:34.930Z,11.95
2022-10-03T06:21:33.739Z,11.97
2022-10-03T06:24:50.997Z,11.99
2022-10-03T06:28:02.676Z,11.99
2022-10-03T06:30:57.063Z,11.98
2022-10-03T06:34:01.360Z,12.00
2022-10-03T06:37:03.922Z,12.02
2022-10-03T06:40:19.192Z,12.04
2022-10-03T06:43:02.623Z,12.03
2022-10-03T06:46:12.271Z,12.01
2022-10-03T06:49:18.559Z,11.99
2022-10-03T06:52:35.699Z,11.99
2022-10-03T06:55:31.807Z,12.02
2022-10-03T06:58:37.963Z,12.01
2022-10-03T07:01:40.328Z,12.02
2022-10-03T07:04:35.805Z,12.04
2022-10-03T07:07:33.922Z,12.07
2022-10-03T07:10:22.772Z,12.09
2022-10-03T07:13:15.457Z,12.10
2022-10-03T07:16:27.634Z,12.10
2022-10-03T07:19:27.582Z,12.10
2022-10-03T07:22:43.845Z,12.11
2022-10-03T07:25:41.376Z,12.13
2022-10-03T07:28:35.817Z,12.09
2022-10-03T07:31:19.378Z,12.06
2022-10-03T07:34:16.846Z,12.06
2022-10-03T07:37:35.969Z,12.07
2022-10-03T07:40:21.130Z,12.10
2022-10-03T07:43:03.590Z,12.11
2022-10-03T07:45:41.509Z,12.09
2022-10-03T07:48:54.106Z,12.05
2022-10-03T07:51:33.950Z,12.03
2022-10-03T07:54:28.681Z,12.05
2022-10-03T07:57:21.947Z,12.10
2022-10-03T08:00:12.173Z,12.12
2022-10-03T08:03:16.465Z,12.17
2022-10-03T08:06:19.090Z,12.20
2022-10-03T08:09:17.457Z,12.22
2022-10-03T08:12:18.084Z,12.23
2022-10-03T08:15:04.831Z,12.22
2022-10-03T08:18:03.216Z,12.21
2022-10-03T08:20:55.386Z,12.22
2022-10-03T08:23:51.923Z,12.24
2022-10-03T08:26:33.531Z,12.21
2022-10-03T08:29:36.209Z,12.21
2022-10-03T08:32:39.027Z,12.23
2022-10-03T08:35:31.571Z,12.30
2022-10-03T08:38:36.155Z,12.31
2022-10-03T08:42:06.131Z,12.31
2022-10-03T08:45:23.204Z,12.33
2022-10-03T08:48:27.872Z,12.35
2022-10-03T08:51:32.798Z,12.41
2022-10-03T08:54:23.203Z,12.45
2022-10-03T08:57:22.057Z,12.44
2022-10-03T09:00:20.398Z,12.42
2022-10-03T09:03:36.763Z,12.42
2022-10-03T09:07:16.475Z,12.40
2022-10-03T09:10:21.816Z,12.45
2022-10-03T09:13:52.500Z,12.51
2022-10-03T09:16:49.190Z,12.57
2022-10-03T09:19:46.780Z,12.63
2022-10-03T09:22:32.932Z,12.67
2022-10-03T09:25:35.172Z,12.76
2022-10-03T09:28:36.882Z,12.87
2022-10-03T09:31:26.672Z,12.98
2022-10-03T09:34:33.847Z,13.21
2022-10-03T09:37:38.916Z,13.45
2022-10-03T09:40:41.553Z,13.50
2022-10-03T09:43:41.673Z,13.55
2022-10-03T09:47:28.267Z,13.64
2022-10-03T09:50:32.887Z,13.82
2022-10-03T09:53:30.438Z,13.99
2022-10-03T09:56:27.395Z,14.17
2022-10-03T09:59:14.050Z,14.30
2022-10-03T10:01:54.664Z,14.36
2022-10-03T10:04:55.231Z,14.42
2022-10-03T10:07:56.682Z,14.55
2022-10-03T10:10:53.030Z,14.67
2022-10-03T10:14:12.787Z,14.71
2022-10-03T10:17:37.160Z,14.79
2022-10-03T10:20:21.623Z,14.80
2022-10-03T10:23:28.238Z,14.74
2022-10-03T10:26:31.053Z,14.77
2022-10-03T10:29:44.573Z,14.96
2022-10-03T10:32:51.383Z,15.15
2022-10-03T10:35:47.888Z,15.27
2022-10-03T10:38:31.928Z,15.42
2022-10-03T10:42:04.121Z,15.41
2022-10-03T10:45:14.817Z,15.34
2022-10-03T10:48:14.779Z,15.20
2022-10-03T10:51:10.680Z,15.10
2022-10-03T10:54:14.614Z,15.04
2022-10-03T10:57:07.997Z,14.96
2022-10-03T11:00:15.337Z,14.99
2022-10-03T11:03:18.032Z,15.12
2022-10-03T11:06:30.182Z,15.31
2022-10-03T11:09:32.045Z,15.56
2022-10-03T11:12:53.229Z,15.77
2022-10-03T11:16:06.088Z,15.98
2022-10-03T11:19:17.759Z,16.07
2022-10-03T11:22:28.622Z,16.00
2022-10-03T11:25:37.462Z,15.99
2022-10-03T11:28:40.320Z,16.06
2022-10-03T11:31:48.875Z,16.01
2022-10-03T11:34:49.750Z,15.86
2022-10-03T11:37:36.197Z,15.64
2022-10-03T11:40:23.631Z,15.45
2022-10-03T11:43:15.913Z,15.37
2022-10-03T11:45:52.734Z,15.32
2022-10-03T11:48:42.084Z,15.40
2022-10-03T11:51:19.117Z,15.48
2022-10-03T11:54:19.207Z,15.56
2022-10-03T11:56:52.157Z,15.68
2022-10-03T12:00:00.326Z,15.76
2022-10-03T12:03:13.929Z,15.89
2022-10-03T12:06:14.911Z,16.03
2022-10-03T12:09:00.215Z,16.14
2022-10-03T12:11:40.637Z,16.10
2022-10-03T12:14:29.191Z,15.93
2022-10-03T12:17:09.995Z,15.72
2022-10-03T12:19:56.224Z,15.50
2022-10-03T12:22:50.188Z,15.35
2022-10-03T12:25:25.331Z,15.32
2022-10-03T12:28:14.958Z,15.31
2022-10-03T12:30:54.289Z,15.32
2022-10-03T12:33:40.033Z,15.36
2022-10-03T12:36:16.931Z,15.40
2022-10-03T12:39:03.107Z,15.45
2022-10-03T12:41:58.863Z,15.55
2022-10-03T12:44:46.496Z,15.66
2022-10-03T12:47:50.975Z,15.75
2022-10-03T12:50:33.709Z,15.80
2022-10-03T12:53:29.589Z,15.90
2022-10-03T12:56:12.797Z,15.97
2022-10-03T12:59:03.706Z,16.04
2022-10-03T13:01:52.055Z,16.09
2022-10-03T13:04:37.084Z,16.10
2022-10-03T13:07:15.322Z,16.09
2022-10-03T13:10:07.544Z,16.09
2022-10-03T13:12:47.127Z,16.13
2022-10-03T13:15:49.017Z,16.17
2022-10-03T13:18:35.451Z,16.22
2022-10-03T13:21:43.842Z,16.23
2022-10-03T13:24:22.382Z,16.23
2022-10-03T13:27:04.300Z,16.22
2022-10-03T13:29:42.253Z,16.21
2022-10-03T13:32:25.033Z,16.13
2022-10-03T13:35:20.343Z,15.96
2022-10-03T13:38:22.147Z,15.80
2022-10-03T13:41:05.764Z,15.64
2022-10-03T13:43:41.222Z,15.46
2022-10-03T13:46:20.035Z,15.29
2022-10-03T13:49:01.810Z,15.14
2022-10-03T13:51:44.750Z,14.97
2022-10-03T13:54:26.095Z,14.81
2022-10-03T13:57:09.910Z,14.73
2022-10-03T13:59:50.743Z,14.68
2022-10-03T14:02:44.887Z,14.63
2022-10-03T14:05:34.786Z,14.58
2022-10-03T14:08:17.484Z,14.48
2022-10-03T14:11:10.394Z,14.38
2022-10-03T14:13:56.054Z,14.27
2022-10-03T14:16:31.997Z,14.23
2022-10-03T14:19:14.881Z,14.23
2022-10-03T14:22:07.773Z,14.23
2022-10-03T14:24:50.906Z,14.16
2022-10-03T14:27:37.731Z,14.10
2022-10-03T14:30:16.951Z,14.02
2022-10-03T14:33:02.344Z,13.96
2022-10-03T14:35:40.603Z,13.91
2022-10-03T14:38:46.427Z,13.84
2022-10-03T14:41:25.986Z,13.74
2022-10-03T14:44:00.868Z,13.66
2022-10-03T14:46:38.880Z,13.56
2022-10-03T14:49:50.952Z,13.48
2022-10-03T14:52:26.065Z,13.42
2022-10-03T14:55:08.225Z,13.37
2022-10-03T14:58:08.785Z,13.34
2022-10-03T15:00:45.428Z,13.32
2022-10-03T15:03:38.242Z,13.28
2022-10-03T15:06:57.459Z,13.22
2022-10-03T15:09:34.160Z,13.14
2022-10-03T15:12:12.964Z,13.11
2022-10-03T15:14:49.347Z,13.13
2022-10-03T15:17:25.473Z,13.12
2022-10-03T15:19:59.234Z,13.09
2022-10-03T15:22:36.426Z,13.05
2022-10-03T15:25:17.972Z,13.04
2022-10-03T15:27:53.746Z,13.03
2022-10-03T15:30:31.963Z,13.01
2022-10-03T15:33:13.101Z,12.97
2022-10-03T15:35:48.126Z,12.92
2022-10-03T15:38:26.485Z,12.88
2022-10-03T15:41:12.574Z,12.81
2022-10-03T15:43:52.529Z,12.78
2022-10-03T15:46:34.902Z,12.81
2022-10-03T15:49:10.185Z,12.78
2022-10-03T15:51:44.049Z,12.75
2022-10-03T15:54:21.930Z,12.73
2022-10-03T15:56:57.126Z,12.72
2022-10-03T15:59:34.884Z,12.68
2022-10-03T16:02:19.208Z,12.66
2022-10-03T16:04:57.323Z,12.61
2022-10-03T16:07:37.087Z,12.58
2022-10-03T16:10:16.832Z,12.53
2022-10-03T16:13:04.152Z,12.50
2022-10-03T16:15:53.656Z,12.46
2022-10-03T16:18:50.985Z,12.45
2022-10-03T16:21:43.475Z,12.47
2022-10-03T16:24:31.583Z,12.44
2022-10-03T16:27:13.584Z,12.42
2022-10-03T16:29:52.185Z,12.37
2022-10-03T16:32:26.842Z,12.33
2022-10-03T16:35:03.772Z,12.30
2022-10-03T16:37:42.628Z,12.27
2022-10-03T16:40:22.292Z,12.25
2022-10-03T16:42:59.021Z,12.21
2022-10-03T16:45:35.261Z,12.18
2022-10-03T16:48:33.589Z,12.22
2022-10-03T16:51:07.578Z,12.23
2022-10-03T16:53:44.382Z,12.25
2022-10-03T16:56:19.804Z,12.24
2022-10-03T16:58:55.438Z,12.25
2022-10-03T17:01:33.111Z,12.26
2022-10-03T17:04:21.175Z,12.24
2022-10-03T17:06:57.087Z,12.23
2022-10-03T17:09:38.215Z,12.23
2022-10-03T17:12:16.733Z,12.23
2022-10-03T17:14:50.083Z,12.29
2022-10-03T17:17:31.008Z,12.30
2022-10-03T17:20:09.177Z,12.30
2022-10-03T17:22:47.993Z,12.29
2022-10-03T17:25:39.187Z,12.29
2022-10-03T17:28:16.405Z,12.30
2022-10-03T17:30:54.555Z,12.31
2022-10-03T17:33:36.123Z,12.30
2022-10-03T17:36:27.517Z,12.29
2022-10-03T17:39:05.977Z,12.32
2022-10-03T17:41:43.091Z,12.32
2022-10-03T17:44:29.705Z,12.32
2022-10-03T17:47:07.852Z,12.30
2022-10-03T17:49:49.163Z,12.29
2022-10-03T17:52:23.663Z,12.25
2022-10-03T17:54:58.023Z,12.22
2022-10-03T17:57:36.993Z,12.19
2022-10-03T18:00:18.448Z,12.19
2022-10-03T18:02:58.840Z,12.23
2022-10-03T18:05:35.822Z,12.23
2022-10-03T18:08:14.321Z,12.23
2022-10-03T18:10:54.777Z,12.25
2022-10-03T18:13:35.917Z,12.25
2022-10-03T18:16:34.553Z,12.21
2022-10-03T18:19:22.223Z,12.18
2022-10-03T18:22:08.337Z,12.14
2022-10-03T18:24:51.412Z,12.12
2022-10-03T18:27:45.142Z,12.14
2022-10-03T18:30:25.689Z,12.12
2022-10-03T18:32:58.985Z,12.10
2022-10-03T18:35:35.357Z,12.08
2022-10-03T18:38:18.041Z,12.02
2022-10-03T18:40:56.086Z,11.97
2022-10-03T18:43:44.987Z,11.94
2022-10-03T18:46:21.038Z,11.90
2022-10-03T18:52:00.478Z,11.83
2022-10-03T18:54:42.845Z,11.81
2022-10-03T18:57:21.419Z,11.79
2022-10-03T18:59:57.272Z,11.78
2022-10-03T19:02:37.545Z,11.74
2022-10-03T19:05:17.652Z,11.68
2022-10-03T19:07:56.088Z,11.62
2022-10-03T19:10:38.458Z,11.59
2022-10-03T19:13:26.435Z,11.57
2022-10-03T19:16:19.001Z,11.58
2022-10-03T19:19:03.635Z,11.55
2022-10-03T19:21:40.140Z,11.55
2022-10-03T19:24:15.508Z,11.52
2022-10-03T19:26:52.395Z,11.49
2022-10-03T19:29:28.589Z,11.46
2022-10-03T19:32:07.382Z,11.43
2022-10-03T19:34:44.040Z,11.40
2022-10-03T19:37:20.453Z,11.43
2022-10-03T19:39:52.700Z,11.42
2022-10-03T19:42:34.090Z,11.42
2022-10-03T19:45:12.527Z,11.42
2022-10-03T19:47:51.144Z,11.43
2022-10-03T19:50:28.695Z,11.39
2022-10-03T19:53:01.045Z,11.38
2022-10-03T19:55:39.139Z,11.38
2022-10-03T19:58:23.220Z,11.40
2022-10-03T20:00:58.365Z,11.46
2022-10-03T20:03:42.328Z,11.46
2022-10-03T20:06:23.957Z,11.46
2022-10-03T20:09:00.508Z,11.48
2022-10-03T20:11:42.567Z,11.48
2022-10-03T20:14:19.846Z,11.46
2022-10-03T20:16:54.696Z,11.45
2022-10-03T20:19:29.930Z,11.47
2022-10-03T20:22:07.863Z,11.51
2022-10-03T20:24:44.787Z,11.51
2022-10-03T20:27:29.637Z,11.52
2022-10-03T20:30:09.245Z,11.53
2022-10-03T20:32:47.176Z,11.55
2022-10-03T20:35:23.865Z,11.56
2022-10-03T20:38:03.151Z,11.54
2022-10-03T20:40:39.147Z,11.53
2022-10-03T20:43:29.613Z,11.55
2022-10-03T20:46:13.168Z,11.64
2022-10-03T20:49:02.344Z,11.70
2022-10-03T20:51:46.607Z,11.73
2022-10-03T20:54:21.430Z,11.78
2022-10-03T20:57:00.727Z,11.83
2022-10-03T20:59:40.838Z,11.86
2022-10-03T21:02:21.724Z,11.86
2022-10-03T21:04:58.241Z,11.86
2022-10-03T21:07:41.457Z,11.87
2022-10-03T21:10:24.988Z,11.90
2022-10-03T21:13:01.887Z,11.90
2022-10-03T21:15:40.920Z,11.90
2022-10-03T21:18:23.024Z,11.90
2022-10-03T21:21:08.136Z,11.89
2022-10-03T21:23:47.000Z,11.83
2022-10-03T21:26:25.059Z,11.78
2022-10-03T21:29:27.353Z,11.76
2022-10-03T21:32:14.337Z,11.81
2022-10-03T21:34:54.498Z,11.80
2022-10-03T21:37:35.342Z,11.82
2022-10-03T21:40:32.509Z,11.84
2022-10-03T21:43:14.715Z,11.84
2022-10-03T21:45:55.000Z,11.82
2022-10-03T21:48:36.046Z,11.81
2022-10-03T21:51:27.567Z,11.81
2022-10-03T21:54:16.737Z,11.87
2022-10-03T21:57:05.681Z,11.89
2022-10-03T21:59:55.599Z,11.91
2022-10-03T22:02:37.477Z,11.91
2022-10-03T22:05:16.843Z,11.89
2022-10-03T22:07:49.088Z,11.86
2022-10-03T22:10:23.804Z,11.83
2022-10-03T22:13:01.301Z,11.81
2022-10-03T22:15:40.113Z,11.83
2022-10-03T22:18:16.265Z,11.82
2022-10-03T22:20:57.772Z,11.80
2022-10-03T22:23:40.337Z,11.79
2022-10-03T22:26:22.754Z,11.76
2022-10-03T22:29:05.239Z,11.73
2022-10-03T22:31:45.905Z,11.70
2022-10-03T22:34:31.736Z,11.66
2022-10-03T22:37:03.928Z,11.66
2022-10-03T22:39:37.532Z,11.69
2022-10-03T22:42:14.151Z,11.70
2022-10-03T22:44:49.117Z,11.70
2022-10-03T22:47:23.742Z,11.71
2022-10-03T22:49:59.494Z,11.70
2022-10-03T22:52:35.217Z,11.67
2022-10-03T22:55:11.609Z,11.65
2022-10-03T22:57:45.224Z,11.64
2022-10-03T23:00:27.011Z,11.62
2022-10-03T23:03:05.563Z,11.66
2022-10-03T23:06:09.067Z,11.67
2022-10-03T23:08:52.831Z,11.68
2022-10-03T23:11:29.251Z,11.69
2022-10-03T23:14:06.254Z,11.69
2022-10-03T23:16:52.629Z,11.67
2022-10-03T23:19:42.042Z,11.64
2022-10-03T23:22:19.041Z,11.58
2022-10-03T23:24:55.945Z,11.55
2022-10-03T23:27:48.443Z,11.58
2022-10-03T23:30:54.160Z,11.55
2022-10-03T23:33:44.492Z,11.53
2022-10-03T23:36:19.414Z,11.50
2022-10-03T23:39:04.335Z,11.47
2022-10-03T23:41:56.347Z,11.40
2022-10-03T23:44:36.337Z,11.35
2022-10-03T23:47:14.015Z,11.34
2022-10-03T23:49:52.039Z,11.37
2022-10-03T23:52:28.097Z,11.35
2022-10-03T23:55:05.195Z,11.36
2022-10-03T23:57:41.421Z,11.37
